createdAt,value
2018-06-02T00:00:02.429Z,98.3
2018-06-02T00:01:03.782Z,98.7
2018-06-02T00:02:05.146Z,98.2
2018-06-02T00:03:06.504Z,98.2
2018-06-02T00:04:07.868Z,98.6
2018-06-02T00:05:09.225Z,98.4
2018-06-02T00:06:10.578Z,98.5
2018-06-02T00:07:11.941Z,98.3
2018-06-02T00:08:13.304Z,98.3
2018-06-02T00:09:14.663Z,98.5
2018-06-02T00:10:16.034Z,98.5
2018-06-02T00:11:17.397Z,98.3
2018-06-02T00:12:18.753Z,98.9
2018-06-02T00:13:20.104Z,98.9
2018-06-02T00:14:21.478Z,98.4
2018-06-02T00:15:22.830Z,98.9
2018-06-02T00:16:24.186Z,98.8
2018-06-02T00:17:25.539Z,99.0
2018-06-02T00:18:26.896Z,98.7
2018-06-02T00:19:28.250Z,99.0
2018-06-02T00:20:29.611Z,99.1
2018-06-02T00:21:30.972Z,99.1
2018-06-02T00:22:32.362Z,99.0
2018-06-02T00:23:33.735Z,99.1
2018-06-02T00:24:35.095Z,99.1
2018-06-02T00:25:36.468Z,98.7
2018-06-02T00:26:37.822Z,98.9
2018-06-02T00:27:39.296Z,98.8
2018-06-02T00:28:40.671Z,99.0
2018-06-02T00:29:42.043Z,98.8
2018-06-02T00:30:43.418Z,99.0
2018-06-02T00:31:44.768Z,98.9
2018-06-02T00:32:46.136Z,98.7
2018-06-02T00:33:47.492Z,99.1
2018-06-02T00:34:48.847Z,98.9
2018-06-02T00:35:50.208Z,99.0
2018-06-02T00:36:51.556Z,98.7
2018-06-02T00:37:52.926Z,98.9
2018-06-02T00:38:54.293Z,98.6
2018-06-02T00:39:55.649Z,98.9
2018-06-02T00:40:57.024Z,98.8
2018-06-02T00:41:58.381Z,98.7
2018-06-02T00:42:59.747Z,99.0
2018-06-02T00:44:01.113Z,98.9
2018-06-02T00:45:02.473Z,99.0
2018-06-02T00:46:03.841Z,98.8
2018-06-02T00:47:05.196Z,98.7
2018-06-02T00:48:06.598Z,98.9
2018-06-02T00:49:07.917Z,98.7
2018-06-02T00:50:09.279Z,98.7
2018-06-02T00:51:10.645Z,98.8
2018-06-02T00:52:11.993Z,98.5
2018-06-02T00:53:13.393Z,98.4
2018-06-02T00:54:14.718Z,98.4
2018-06-02T00:55:16.090Z,99.0
2018-06-02T00:56:17.450Z,99.4
2018-06-02T00:57:18.819Z,98.8
2018-06-02T00:58:20.181Z,99.2
2018-06-02T00:59:21.531Z,99.6
2018-06-02T01:00:22.897Z,98.9
2018-06-02T01:01:24.272Z,98.9
2018-06-02T01:02:25.637Z,98.9
2018-06-02T01:03:26.993Z,98.8
2018-06-02T01:04:28.352Z,99.0
2018-06-02T01:05:29.749Z,99.2
2018-06-02T01:06:31.066Z,99.0
2018-06-02T01:07:32.452Z,99.0
2018-06-02T01:08:33.812Z,99.2
2018-06-02T01:09:35.179Z,99.2
2018-06-02T01:10:36.526Z,99.2
2018-06-02T01:11:37.896Z,98.9
2018-06-02T01:12:39.263Z,99.7
2018-06-02T01:13:40.613Z,99.5
2018-06-02T01:14:41.975Z,99.3
2018-06-02T01:15:43.336Z,99.3
2018-06-02T01:16:44.694Z,99.4
2018-06-02T01:17:46.054Z,99.6
2018-06-02T01:18:47.411Z,99.3
2018-06-02T01:19:48.766Z,99.2
2018-06-02T01:20:50.138Z,99.2
2018-06-02T01:21:51.473Z,99.6
2018-06-02T01:22:52.831Z,99.3
2018-06-02T01:23:54.195Z,99.3
2018-06-02T01:24:55.552Z,99.1
2018-06-02T01:25:56.906Z,99.2
2018-06-02T01:26:58.275Z,99.1
2018-06-02T01:27:59.646Z,99.3
2018-06-02T01:29:01.006Z,99.3
2018-06-02T01:30:02.392Z,99.5
2018-06-02T01:31:03.751Z,99.5
2018-06-02T01:32:05.120Z,99.2
2018-06-02T01:33:06.477Z,99.5
2018-06-02T01:34:07.839Z,99.2
2018-06-02T01:35:09.209Z,99.2
2018-06-02T01:36:10.565Z,99.3
2018-06-02T01:37:11.933Z,99.3
2018-06-02T01:38:13.286Z,99.2
2018-06-02T01:39:14.647Z,99.2
2018-06-02T01:40:16.009Z,99.2
2018-06-02T01:41:17.476Z,99.2
2018-06-02T01:42:18.837Z,99.5
2018-06-02T01:43:20.187Z,99.3
2018-06-02T01:44:21.547Z,99.4
2018-06-02T01:45:22.908Z,99.0
2018-06-02T01:46:24.266Z,99.0
2018-06-02T01:47:25.626Z,99.3
2018-06-02T01:48:26.987Z,99.0
2018-06-02T01:49:28.342Z,98.9
2018-06-02T01:50:29.704Z,99.3
2018-06-02T01:51:31.063Z,99.0
2018-06-02T01:52:32.448Z,98.9
2018-06-02T01:53:33.809Z,99.0
2018-06-02T01:54:35.165Z,99.2
2018-06-02T01:55:36.528Z,99.4
2018-06-02T01:56:37.888Z,99.1
2018-06-02T01:57:39.238Z,99.1
2018-06-02T01:58:40.601Z,99.4
2018-06-02T01:59:41.961Z,99.4
2018-06-02T02:00:43.327Z,99.5
2018-06-02T02:01:44.687Z,98.9
2018-06-02T02:02:46.049Z,99.2
2018-06-02T02:03:47.400Z,99.6
2018-06-02T02:04:49.616Z,99.7
2018-06-02T02:05:50.070Z,99.0
2018-06-02T02:06:51.424Z,99.4
2018-06-02T02:07:52.783Z,99.3
2018-06-02T02:08:54.142Z,100.0
2018-06-02T02:09:55.505Z,99.1
2018-06-02T02:10:56.861Z,99.1
2018-06-02T02:11:58.222Z,99.2
2018-06-02T02:12:59.578Z,99.6
2018-06-02T02:14:00.965Z,99.4
2018-06-02T02:15:02.784Z,99.3
2018-06-02T02:16:04.146Z,99.4
2018-06-02T02:17:05.499Z,100.0
2018-06-02T02:18:06.861Z,99.9
2018-06-02T02:19:08.213Z,99.8
2018-06-02T02:20:09.567Z,99.8
2018-06-02T02:21:10.930Z,99.8
2018-06-02T02:22:12.284Z,99.8
2018-06-02T02:23:13.640Z,99.8
2018-06-02T02:24:15.005Z,99.9
2018-06-02T02:25:16.371Z,99.7
2018-06-02T02:26:17.719Z,100.0
2018-06-02T02:27:19.078Z,99.9
2018-06-02T02:28:20.440Z,99.9
2018-06-02T02:29:22.505Z,100.0
2018-06-02T02:30:23.859Z,99.6
2018-06-02T02:31:25.220Z,99.7
2018-06-02T02:32:26.568Z,99.6
2018-06-02T02:33:27.932Z,100.0
2018-06-02T02:34:29.290Z,99.9
2018-06-02T02:35:30.644Z,99.8
2018-06-02T02:36:32.045Z,100.0
2018-06-02T02:37:33.396Z,99.8
2018-06-02T02:38:34.765Z,100.0
2018-06-02T02:39:36.149Z,100.0
2018-06-02T02:40:37.492Z,100.0
2018-06-02T02:41:38.852Z,100.0
2018-06-02T02:42:40.212Z,100.0
2018-06-02T02:43:41.583Z,100.0
2018-06-02T02:44:42.943Z,100.0
2018-06-02T02:45:44.299Z,99.8
2018-06-02T02:46:45.652Z,100.0
2018-06-02T02:47:47.011Z,100.0
2018-06-02T02:48:48.373Z,99.8
2018-06-02T02:49:49.732Z,100.0
2018-06-02T02:50:51.092Z,100.0
2018-06-02T02:51:52.456Z,99.9
2018-06-02T02:52:53.807Z,100.0
2018-06-02T02:53:55.169Z,100.0
2018-06-02T02:54:56.528Z,100.0
2018-06-02T02:55:57.889Z,99.6
2018-06-02T02:56:59.250Z,99.6
2018-06-02T02:58:00.615Z,100.0
2018-06-02T02:59:01.998Z,99.7
2018-06-02T03:00:03.352Z,99.8
2018-06-02T03:01:04.719Z,99.8
2018-06-02T03:02:06.068Z,100.0
2018-06-02T03:03:07.438Z,100.0
2018-06-02T03:04:08.795Z,100.0
2018-06-02T03:05:10.161Z,100.0
2018-06-02T03:06:11.523Z,100.0
2018-06-02T03:07:12.887Z,100.0
2018-06-02T03:08:14.247Z,100.0
2018-06-02T03:09:15.621Z,100.0
2018-06-02T03:10:16.981Z,100.0
2018-06-02T03:11:18.344Z,100.0
2018-06-02T03:12:19.703Z,100.0
2018-06-02T03:13:21.068Z,100.0
2018-06-02T03:14:22.434Z,100.0
2018-06-02T03:15:23.790Z,100.0
2018-06-02T03:16:25.147Z,100.0
2018-06-02T03:17:26.506Z,100.0
2018-06-02T03:18:27.867Z,100.0
2018-06-02T03:19:29.225Z,100.0
2018-06-02T03:20:30.590Z,100.0
2018-06-02T03:21:32.794Z,100.0
2018-06-02T03:22:34.155Z,100.0
2018-06-02T03:23:35.515Z,100.0
2018-06-02T03:24:36.877Z,100.0
2018-06-02T03:25:38.235Z,100.0
2018-06-02T03:26:39.598Z,100.0
2018-06-02T03:27:40.960Z,100.0
2018-06-02T03:28:42.328Z,100.0
2018-06-02T03:29:43.686Z,100.0
2018-06-02T03:30:45.041Z,100.0
2018-06-02T03:31:46.405Z,100.0
2018-06-02T03:32:47.769Z,100.0
2018-06-02T03:33:49.133Z,100.0
2018-06-02T03:34:50.499Z,100.0
2018-06-02T03:35:51.862Z,100.0
2018-06-02T03:36:53.217Z,100.0
2018-06-02T03:37:54.585Z,100.0
2018-06-02T03:38:55.949Z,100.0
2018-06-02T03:39:57.307Z,100.0
2018-06-02T03:40:58.677Z,100.0
2018-06-02T03:42:00.038Z,100.0
2018-06-02T03:43:01.412Z,100.0
2018-06-02T03:44:02.775Z,100.0
2018-06-02T03:45:04.141Z,100.0
2018-06-02T03:46:05.505Z,100.0
2018-06-02T03:47:06.867Z,100.0
2018-06-02T03:48:08.231Z,100.0
2018-06-02T03:49:09.604Z,100.0
2018-06-02T03:50:10.965Z,100.0
2018-06-02T03:51:12.331Z,100.0
2018-06-02T03:52:13.700Z,100.0
2018-06-02T03:53:15.056Z,100.0
2018-06-02T03:54:16.423Z,100.0
2018-06-02T03:55:17.787Z,100.0
2018-06-02T03:56:19.152Z,100.0
2018-06-02T03:57:20.519Z,100.0
2018-06-02T03:58:21.877Z,100.0
2018-06-02T03:59:23.237Z,100.0
2018-06-02T04:00:24.601Z,100.0
2018-06-02T04:01:25.965Z,100.0
2018-06-02T04:02:27.332Z,100.0
2018-06-02T04:03:28.701Z,100.0
2018-06-02T04:04:30.059Z,100.0
2018-06-02T04:05:31.424Z,100.0
2018-06-02T04:06:32.755Z,100.0
2018-06-02T04:07:34.126Z,100.0
2018-06-02T04:08:35.500Z,100.0
2018-06-02T04:09:36.850Z,100.0
2018-06-02T04:10:38.244Z,100.0
2018-06-02T04:11:39.615Z,100.0
2018-06-02T04:12:40.971Z,100.0
2018-06-02T04:13:42.333Z,100.0
2018-06-02T04:14:43.692Z,100.0
2018-06-02T04:15:45.092Z,100.0
2018-06-02T04:16:46.429Z,100.0
2018-06-02T04:17:47.796Z,100.0
2018-06-02T04:18:49.153Z,100.0
2018-06-02T04:19:50.527Z,100.0
2018-06-02T04:20:51.888Z,100.0
2018-06-02T04:21:53.253Z,100.0
2018-06-02T04:22:54.618Z,100.0
2018-06-02T04:23:55.986Z,100.0
2018-06-02T04:24:57.353Z,100.0
2018-06-02T04:25:58.716Z,100.0
2018-06-02T04:27:00.075Z,100.0
2018-06-02T04:28:01.447Z,100.0
2018-06-02T04:29:02.807Z,100.0
2018-06-02T04:30:04.170Z,100.0
2018-06-02T04:31:05.537Z,100.0
2018-06-02T04:32:06.902Z,100.0
2018-06-02T04:33:08.287Z,100.0
2018-06-02T04:34:09.658Z,100.0
2018-06-02T04:35:11.009Z,100.0
2018-06-02T04:36:12.370Z,100.0
2018-06-02T04:37:13.734Z,100.0
2018-06-02T04:38:15.106Z,100.0
2018-06-02T04:39:16.467Z,100.0
2018-06-02T04:40:17.839Z,100.0
2018-06-02T04:41:19.209Z,100.0
2018-06-02T04:42:20.573Z,100.0
2018-06-02T04:43:21.933Z,100.0
2018-06-02T04:44:23.294Z,100.0
2018-06-02T04:45:24.664Z,100.0
2018-06-02T04:46:26.061Z,100.0
2018-06-02T04:47:27.397Z,100.0
2018-06-02T04:48:28.751Z,100.0
2018-06-02T04:49:30.120Z,100.0
2018-06-02T04:50:31.511Z,100.0
2018-06-02T04:51:32.847Z,100.0
2018-06-02T04:52:34.226Z,100.0
2018-06-02T04:53:35.591Z,100.0
2018-06-02T04:54:36.965Z,100.0
2018-06-02T04:55:38.330Z,100.0
2018-06-02T04:56:39.689Z,100.0
2018-06-02T04:57:41.056Z,100.0
2018-06-02T04:58:42.425Z,100.0
2018-06-02T04:59:43.786Z,100.0
2018-06-02T05:00:45.157Z,100.0
2018-06-02T05:01:46.514Z,100.0
2018-06-02T05:02:47.887Z,100.0
2018-06-02T05:03:49.252Z,100.0
2018-06-02T05:04:50.625Z,100.0
2018-06-02T05:05:51.981Z,100.0
2018-06-02T05:06:53.342Z,100.0
2018-06-02T05:07:54.712Z,100.0
2018-06-02T05:08:56.081Z,100.0
2018-06-02T05:09:57.448Z,100.0
2018-06-02T05:10:58.814Z,100.0
2018-06-02T05:12:00.172Z,100.0
2018-06-02T05:13:01.589Z,100.0
2018-06-02T05:14:02.956Z,100.0
2018-06-02T05:15:04.346Z,100.0
2018-06-02T05:16:05.692Z,100.0
2018-06-02T05:17:07.045Z,100.0
2018-06-02T05:18:08.420Z,100.0
2018-06-02T05:19:09.791Z,100.0
2018-06-02T05:20:11.156Z,100.0
2018-06-02T05:21:12.514Z,100.0
2018-06-02T05:22:13.890Z,100.0
2018-06-02T05:23:15.253Z,100.0
2018-06-02T05:24:16.618Z,100.0
2018-06-02T05:25:17.985Z,100.0
2018-06-02T05:26:19.346Z,100.0
2018-06-02T05:27:20.719Z,100.0
2018-06-02T05:28:22.086Z,100.0
2018-06-02T05:29:23.451Z,100.0
2018-06-02T05:30:24.819Z,100.0
2018-06-02T05:31:26.187Z,100.0
2018-06-02T05:32:27.555Z,100.0
2018-06-02T05:33:28.920Z,100.0
2018-06-02T05:34:30.288Z,99.9
2018-06-02T05:35:31.669Z,100.0
2018-06-02T05:36:33.038Z,100.0
2018-06-02T05:37:34.414Z,100.0
2018-06-02T05:38:35.776Z,100.0
2018-06-02T05:39:37.144Z,99.9
2018-06-02T05:40:38.509Z,99.9
2018-06-02T05:41:39.988Z,100.0
2018-06-02T05:42:41.358Z,100.0
2018-06-02T05:43:42.726Z,99.7
2018-06-02T05:44:44.096Z,99.2
2018-06-02T05:45:45.476Z,99.4
2018-06-02T05:46:46.870Z,99.5
2018-06-02T05:47:48.249Z,99.4
2018-06-02T05:48:49.603Z,99.4
2018-06-02T05:49:50.971Z,99.9
2018-06-02T05:50:52.344Z,99.1
2018-06-02T05:51:53.717Z,98.9
2018-06-02T05:52:55.084Z,98.9
2018-06-02T05:53:56.450Z,98.9
2018-06-02T05:54:57.821Z,98.7
2018-06-02T05:55:59.200Z,98.6
2018-06-02T05:57:00.572Z,98.8
2018-06-02T05:58:01.981Z,98.7
2018-06-02T05:59:03.352Z,98.7
2018-06-02T06:00:04.721Z,98.2
2018-06-02T06:01:06.091Z,98.3
2018-06-02T06:02:07.467Z,98.3
2018-06-02T06:03:08.831Z,97.6
2018-06-02T06:04:10.216Z,97.7
2018-06-02T06:05:11.593Z,98.0
2018-06-02T06:06:12.967Z,97.3
2018-06-02T06:07:14.345Z,97.0
2018-06-02T06:08:15.720Z,97.0
2018-06-02T06:09:17.081Z,97.0
2018-06-02T06:10:18.458Z,96.8
2018-06-02T06:11:19.845Z,96.2
2018-06-02T06:12:21.214Z,96.1
2018-06-02T06:13:22.601Z,96.3
2018-06-02T06:14:23.976Z,96.2
2018-06-02T06:15:25.352Z,96.4
2018-06-02T06:16:26.727Z,95.8
2018-06-02T06:17:28.103Z,95.8
2018-06-02T06:18:29.470Z,95.9
2018-06-02T06:19:30.891Z,94.9
2018-06-02T06:20:32.259Z,95.2
2018-06-02T06:21:33.639Z,95.0
2018-06-02T06:22:35.001Z,94.9
2018-06-02T06:23:36.368Z,95.3
2018-06-02T06:24:37.744Z,94.7
2018-06-02T06:25:39.112Z,94.4
2018-06-02T06:26:40.485Z,94.6
2018-06-02T06:27:42.024Z,94.4
2018-06-02T06:28:43.400Z,94.2
2018-06-02T06:29:44.783Z,94.3
2018-06-02T06:30:46.156Z,93.7
2018-06-02T06:31:47.537Z,93.3
2018-06-02T06:32:48.923Z,93.6
2018-06-02T06:33:50.273Z,93.9
2018-06-02T06:34:51.656Z,93.3
2018-06-02T06:35:53.024Z,93.6
2018-06-02T06:36:54.475Z,93.5
2018-06-02T06:37:55.853Z,93.1
2018-06-02T06:38:57.229Z,92.9
2018-06-02T06:39:58.610Z,93.1
2018-06-02T06:41:00.006Z,92.5
2018-06-02T06:42:01.382Z,92.0
2018-06-02T06:43:02.756Z,91.9
2018-06-02T06:44:04.130Z,91.6
2018-06-02T06:45:05.510Z,91.2
2018-06-02T06:46:06.915Z,90.8
2018-06-02T06:47:08.295Z,91.0
2018-06-02T06:48:09.667Z,90.7
2018-06-02T06:49:11.041Z,90.9
2018-06-02T06:50:12.413Z,90.7
2018-06-02T06:51:13.797Z,90.9
2018-06-02T06:52:15.164Z,90.4
2018-06-02T06:53:16.543Z,90.2
2018-06-02T06:54:17.917Z,89.7
2018-06-02T06:55:19.293Z,90.7
2018-06-02T06:56:20.665Z,90.3
2018-06-02T06:57:22.041Z,90.3
2018-06-02T06:58:23.418Z,89.8
2018-06-02T06:59:24.794Z,90.2
2018-06-02T07:00:26.167Z,89.7
2018-06-02T07:01:27.545Z,89.7
2018-06-02T07:02:28.921Z,90.1
2018-06-02T07:03:30.350Z,89.9
2018-06-02T07:04:31.740Z,90.2
2018-06-02T07:05:33.116Z,90.4
2018-06-02T07:06:34.512Z,89.7
2018-06-02T07:07:35.947Z,89.3
2018-06-02T07:08:37.393Z,89.2
2018-06-02T07:09:38.788Z,88.6
2018-06-02T07:10:40.165Z,88.7
2018-06-02T07:11:41.552Z,88.6
2018-06-02T07:12:42.918Z,88.4
2018-06-02T07:13:44.328Z,88.2
2018-06-02T07:14:45.772Z,88.5
2018-06-02T07:15:47.202Z,87.9
2018-06-02T07:16:48.549Z,87.7
2018-06-02T07:17:50.014Z,87.2
2018-06-02T07:18:51.342Z,87.6
2018-06-02T07:19:52.716Z,87.2
2018-06-02T07:20:54.099Z,86.6
2018-06-02T07:21:55.472Z,86.6
2018-06-02T07:22:56.860Z,86.7
2018-06-02T07:23:58.240Z,86.4
2018-06-02T07:24:59.626Z,86.2
2018-06-02T07:26:01.004Z,86.0
2018-06-02T07:27:02.393Z,85.6
2018-06-02T07:28:03.778Z,85.2
2018-06-02T07:29:05.170Z,84.6
2018-06-02T07:30:06.543Z,84.3
2018-06-02T07:31:07.931Z,84.2
2018-06-02T07:32:09.307Z,84.0
2018-06-02T07:33:10.691Z,83.8
2018-06-02T07:34:12.067Z,83.5
2018-06-02T07:35:13.454Z,83.1
2018-06-02T07:36:14.834Z,83.0
2018-06-02T07:37:16.216Z,83.4
2018-06-02T07:38:17.629Z,83.6
2018-06-02T07:39:19.012Z,83.6
2018-06-02T07:40:20.388Z,83.6
2018-06-02T07:41:21.772Z,83.3
2018-06-02T07:42:23.155Z,82.8
2018-06-02T07:43:24.533Z,82.2
2018-06-02T07:44:25.916Z,82.5
2018-06-02T07:45:27.302Z,81.7
2018-06-02T07:46:28.684Z,81.6
2018-06-02T07:47:30.057Z,81.6
2018-06-02T07:48:31.479Z,81.4
2018-06-02T07:49:32.831Z,81.2
2018-06-02T07:50:34.222Z,81.2
2018-06-02T07:51:35.605Z,80.2
2018-06-02T07:52:36.982Z,80.0
2018-06-02T07:53:38.364Z,80.2
2018-06-02T07:54:39.757Z,80.0
2018-06-02T07:55:41.135Z,79.3
2018-06-02T07:56:42.514Z,79.4
2018-06-02T07:57:43.907Z,79.9
2018-06-02T07:58:45.283Z,80.0
2018-06-02T07:59:46.669Z,80.3
2018-06-02T08:00:48.057Z,80.1
2018-06-02T08:01:49.433Z,80.2
2018-06-02T08:02:50.949Z,80.3
2018-06-02T08:03:52.319Z,79.7
2018-06-02T08:04:53.729Z,79.7
2018-06-02T08:05:55.098Z,79.8
2018-06-02T08:06:56.488Z,79.2
2018-06-02T08:07:57.864Z,78.5
2018-06-02T08:08:59.250Z,78.5
2018-06-02T08:10:00.625Z,78.6
2018-06-02T08:11:02.040Z,77.9
2018-06-02T08:12:03.468Z,78.1
2018-06-02T08:13:04.838Z,77.7
2018-06-02T08:14:06.219Z,77.6
2018-06-02T08:15:07.617Z,77.3
2018-06-02T08:16:08.992Z,77.4
2018-06-02T08:17:10.368Z,77.5
2018-06-02T08:18:11.757Z,77.2
2018-06-02T08:19:13.141Z,76.8
2018-06-02T08:20:14.520Z,76.0
2018-06-02T08:21:15.919Z,75.9
2018-06-02T08:22:17.312Z,75.5
2018-06-02T08:23:18.696Z,75.3
2018-06-02T08:24:20.097Z,75.1
2018-06-02T08:25:21.466Z,74.7
2018-06-02T08:26:22.852Z,75.4
2018-06-02T08:27:24.253Z,75.0
2018-06-02T08:28:25.647Z,75.1
2018-06-02T08:29:27.057Z,75.5
2018-06-02T08:30:28.435Z,75.0
2018-06-02T08:31:29.823Z,74.7
2018-06-02T08:32:31.216Z,74.4
2018-06-02T08:33:32.610Z,75.1
2018-06-02T08:34:33.977Z,75.2
2018-06-02T08:35:35.360Z,74.1
2018-06-02T08:36:36.743Z,74.3
2018-06-02T08:37:38.136Z,74.4
2018-06-02T08:38:39.520Z,73.9
2018-06-02T08:39:40.912Z,74.2
2018-06-02T08:40:42.299Z,73.4
2018-06-02T08:41:43.677Z,73.6
2018-06-02T08:42:45.077Z,72.7
2018-06-02T08:43:46.468Z,72.9
2018-06-02T08:44:47.889Z,72.5
2018-06-02T08:45:49.286Z,72.0
2018-06-02T08:46:50.672Z,72.0
2018-06-02T08:47:52.050Z,72.4
2018-06-02T08:48:53.437Z,72.0
2018-06-02T08:49:54.822Z,72.0
2018-06-02T08:50:56.205Z,71.7
2018-06-02T08:51:57.598Z,71.7
2018-06-02T08:52:58.981Z,72.0
2018-06-02T08:54:00.361Z,71.9
2018-06-02T08:55:01.769Z,71.9
2018-06-02T08:56:03.198Z,72.1
2018-06-02T08:57:04.574Z,72.2
2018-06-02T08:58:05.963Z,71.6
2018-06-02T08:59:07.349Z,71.1
2018-06-02T09:00:08.733Z,71.3
2018-06-02T09:01:10.124Z,71.3
2018-06-02T09:02:11.506Z,71.2
2018-06-02T09:03:12.888Z,70.9
2018-06-02T09:04:14.276Z,70.2
2018-06-02T09:05:15.659Z,70.2
2018-06-02T09:06:17.044Z,70.0
2018-06-02T09:07:18.430Z,70.0
2018-06-02T09:08:19.812Z,70.1
2018-06-02T09:09:21.212Z,70.2
2018-06-02T09:10:22.623Z,70.1
2018-06-02T09:11:24.006Z,70.1
2018-06-02T09:12:25.394Z,69.5
2018-06-02T09:13:26.778Z,69.1
2018-06-02T09:14:28.175Z,69.4
2018-06-02T09:15:29.601Z,69.3
2018-06-02T09:16:30.937Z,69.9
2018-06-02T09:17:32.356Z,69.9
2018-06-02T09:18:33.754Z,70.1
2018-06-02T09:19:35.132Z,70.2
2018-06-02T09:20:36.516Z,70.0
2018-06-02T09:21:37.893Z,70.3
2018-06-02T09:22:39.274Z,70.4
2018-06-02T09:23:40.657Z,70.6
2018-06-02T09:24:42.042Z,70.5
2018-06-02T09:25:43.421Z,70.3
2018-06-02T09:26:44.811Z,70.0
2018-06-02T09:27:46.193Z,70.3
2018-06-02T09:28:47.567Z,70.8
2018-06-02T09:29:48.943Z,70.7
2018-06-02T09:30:50.362Z,70.4
2018-06-02T09:31:51.748Z,70.2
2018-06-02T09:32:53.135Z,70.1
2018-06-02T09:33:54.516Z,70.1
2018-06-02T09:34:55.943Z,70.1
2018-06-02T09:35:57.317Z,69.1
2018-06-02T09:36:58.709Z,69.1
2018-06-02T09:38:00.101Z,69.0
2018-06-02T09:39:01.486Z,68.8
2018-06-02T09:40:02.864Z,68.3
2018-06-02T09:41:04.255Z,68.5
2018-06-02T09:42:05.635Z,68.3
2018-06-02T09:43:07.024Z,68.4
2018-06-02T09:44:08.409Z,67.7
2018-06-02T09:45:09.801Z,67.7
2018-06-02T09:46:11.180Z,67.4
2018-06-02T09:47:12.580Z,67.4
2018-06-02T09:48:13.971Z,67.4
2018-06-02T09:49:15.345Z,66.6
2018-06-02T09:50:16.733Z,66.1
2018-06-02T09:51:18.126Z,66.1
2018-06-02T09:52:19.519Z,65.6
2018-06-02T09:53:20.909Z,65.5
2018-06-02T09:54:22.291Z,64.9
2018-06-02T09:55:23.708Z,65.0
2018-06-02T09:56:25.107Z,65.0
2018-06-02T09:57:26.492Z,65.7
2018-06-02T09:58:27.878Z,65.0
2018-06-02T09:59:29.271Z,65.1
2018-06-02T10:00:30.656Z,64.7
2018-06-02T10:01:32.092Z,64.5
2018-06-02T10:02:33.528Z,64.3
2018-06-02T10:03:34.931Z,64.1
2018-06-02T10:04:36.357Z,64.3
2018-06-02T10:05:37.707Z,64.6
2018-06-02T10:06:39.097Z,64.6
2018-06-02T10:07:40.476Z,64.6
2018-06-02T10:08:41.866Z,64.8
2018-06-02T10:09:43.274Z,64.4
2018-06-02T10:10:44.677Z,64.4
2018-06-02T10:11:46.070Z,63.9
2018-06-02T10:12:47.455Z,64.2
2018-06-02T10:13:48.836Z,63.8
2018-06-02T10:14:50.234Z,63.1
2018-06-02T10:15:51.617Z,63.8
2018-06-02T10:16:53.001Z,63.3
2018-06-02T10:17:54.386Z,63.5
2018-06-02T10:18:55.774Z,62.8
2018-06-02T10:19:57.157Z,63.0
2018-06-02T10:20:58.543Z,63.9
2018-06-02T10:21:59.955Z,63.3
2018-06-02T10:23:02.289Z,63.4
2018-06-02T10:24:02.686Z,63.8
2018-06-02T10:25:04.070Z,63.8
2018-06-02T10:26:05.457Z,63.7
2018-06-02T10:27:06.867Z,63.3
2018-06-02T10:28:08.244Z,63.7
2018-06-02T10:29:09.627Z,63.6
2018-06-02T10:30:11.062Z,63.6
2018-06-02T10:31:12.449Z,63.0
2018-06-02T10:32:13.844Z,63.5
2018-06-02T10:33:15.227Z,63.4
2018-06-02T10:34:16.620Z,62.9
2018-06-02T10:35:17.996Z,62.5
2018-06-02T10:36:19.389Z,62.9
2018-06-02T10:37:20.786Z,62.6
2018-06-02T10:38:22.183Z,62.3
2018-06-02T10:39:23.561Z,62.3
2018-06-02T10:40:24.947Z,62.1
2018-06-02T10:41:26.330Z,62.1
2018-06-02T10:42:27.718Z,61.8
2018-06-02T10:43:29.109Z,62.0
2018-06-02T10:44:30.498Z,61.9
2018-06-02T10:45:31.917Z,61.7
2018-06-02T10:46:33.321Z,61.4
2018-06-02T10:47:34.704Z,61.1
2018-06-02T10:48:36.098Z,61.3
2018-06-02T10:49:37.474Z,60.6
2018-06-02T10:50:38.863Z,60.8
2018-06-02T10:51:40.266Z,60.8
2018-06-02T10:52:41.658Z,60.6
2018-06-02T10:53:43.049Z,60.9
2018-06-02T10:54:44.428Z,62.0
2018-06-02T10:55:45.817Z,61.9
2018-06-02T10:56:47.206Z,61.8
2018-06-02T10:57:48.605Z,61.4
2018-06-02T10:58:49.998Z,61.5
2018-06-02T10:59:51.391Z,61.4
2018-06-02T11:00:52.770Z,60.6
2018-06-02T11:01:54.160Z,60.6
2018-06-02T11:02:55.553Z,60.8
2018-06-02T11:03:56.943Z,60.5
2018-06-02T11:04:58.326Z,60.0
2018-06-02T11:05:59.725Z,59.4
2018-06-02T11:07:01.112Z,59.6
2018-06-02T11:08:02.521Z,59.4
2018-06-02T11:09:03.950Z,59.1
2018-06-02T11:10:05.284Z,59.0
2018-06-02T11:11:06.704Z,58.9
2018-06-02T11:12:08.087Z,59.0
2018-06-02T11:13:09.519Z,59.2
2018-06-02T11:14:10.911Z,59.3
2018-06-02T11:15:12.297Z,59.6
2018-06-02T11:16:13.698Z,59.3
2018-06-02T11:17:15.080Z,59.4
2018-06-02T11:18:16.458Z,59.6
2018-06-02T11:19:17.845Z,59.1
2018-06-02T11:20:19.232Z,59.0
2018-06-02T11:21:20.618Z,59.0
2018-06-02T11:22:22.005Z,59.1
2018-06-02T11:23:23.427Z,58.5
2018-06-02T11:24:24.807Z,58.6
2018-06-02T11:25:26.286Z,58.6
2018-06-02T11:26:27.670Z,58.6
2018-06-02T11:27:29.069Z,58.4
2018-06-02T11:28:30.457Z,58.1
2018-06-02T11:29:31.881Z,57.7
2018-06-02T11:30:33.279Z,57.7
2018-06-02T11:31:34.657Z,58.0
2018-06-02T11:32:36.039Z,57.8
2018-06-02T11:33:37.428Z,57.7
2018-06-02T11:34:38.819Z,58.0
2018-06-02T11:35:40.211Z,58.2
2018-06-02T11:36:41.585Z,57.8
2018-06-02T11:37:42.993Z,58.0
2018-06-02T11:38:44.378Z,57.9
2018-06-02T11:39:45.766Z,57.2
2018-06-02T11:40:47.164Z,57.5
2018-06-02T11:41:48.546Z,57.5
2018-06-02T11:42:49.936Z,57.0
2018-06-02T11:43:51.321Z,56.8
2018-06-02T11:44:52.710Z,56.8
2018-06-02T11:45:54.090Z,56.4
2018-06-02T11:46:55.480Z,56.0
2018-06-02T11:47:56.887Z,55.5
2018-06-02T11:48:58.359Z,56.4
2018-06-02T11:49:59.739Z,55.8
2018-06-02T11:51:01.127Z,56.1
2018-06-02T11:52:02.639Z,56.4
2018-06-02T11:53:04.023Z,55.6
2018-06-02T11:54:05.427Z,56.2
2018-06-02T11:55:06.824Z,55.9
2018-06-02T11:56:08.210Z,56.0
2018-06-02T11:57:09.594Z,56.1
2018-06-02T11:58:11.003Z,55.8
2018-06-02T11:59:12.382Z,56.0
2018-06-02T12:00:13.770Z,56.3
2018-06-02T12:01:15.168Z,55.9
2018-06-02T12:02:16.570Z,56.1
2018-06-02T12:03:17.964Z,56.3
2018-06-02T12:04:19.348Z,56.1
2018-06-02T12:05:20.743Z,55.9
2018-06-02T12:06:22.120Z,55.6
2018-06-02T12:07:23.522Z,55.1
2018-06-02T12:08:24.903Z,55.4
2018-06-02T12:09:26.291Z,54.8
2018-06-02T12:10:27.681Z,54.5
2018-06-02T12:11:29.070Z,54.2
2018-06-02T12:12:30.457Z,54.2
2018-06-02T12:13:31.876Z,54.3
2018-06-02T12:14:33.278Z,54.4
2018-06-02T12:15:34.676Z,54.2
2018-06-02T12:16:36.072Z,54.2
2018-06-02T12:17:37.481Z,53.5
2018-06-02T12:18:38.874Z,54.0
2018-06-02T12:19:40.260Z,53.7
2018-06-02T12:20:41.683Z,53.4
2018-06-02T12:21:43.028Z,53.1
2018-06-02T12:22:44.419Z,53.1
2018-06-02T12:23:45.801Z,53.0
2018-06-02T12:24:47.196Z,53.0
2018-06-02T12:25:48.590Z,53.1
2018-06-02T12:26:49.983Z,52.3
2018-06-02T12:27:51.374Z,53.1
2018-06-02T12:28:52.764Z,53.0
2018-06-02T12:29:54.173Z,52.6
2018-06-02T12:30:55.554Z,52.6
2018-06-02T12:31:56.943Z,52.7
2018-06-02T12:32:58.338Z,52.5
2018-06-02T12:33:59.731Z,52.7
2018-06-02T12:35:01.115Z,52.9
2018-06-02T12:36:02.508Z,53.0
2018-06-02T12:37:03.903Z,51.8
2018-06-02T12:38:05.298Z,52.1
2018-06-02T12:39:06.682Z,52.4
2018-06-02T12:40:08.108Z,52.0
2018-06-02T12:41:09.464Z,52.0
2018-06-02T12:42:10.842Z,52.1
2018-06-02T12:43:12.231Z,52.8
2018-06-02T12:44:13.615Z,52.8
2018-06-02T12:45:15.012Z,53.3
2018-06-02T12:46:16.398Z,53.0
2018-06-02T12:47:17.785Z,52.9
2018-06-02T12:48:19.181Z,52.6
2018-06-02T12:49:20.579Z,52.6
2018-06-02T12:50:21.955Z,52.3
2018-06-02T12:51:23.344Z,52.3
2018-06-02T12:52:24.731Z,51.6
2018-06-02T12:53:26.158Z,51.2
2018-06-02T12:54:27.472Z,51.7
2018-06-02T12:55:28.856Z,50.8
2018-06-02T12:56:30.243Z,50.8
2018-06-02T12:57:31.663Z,50.2
2018-06-02T12:58:33.047Z,49.9
2018-06-02T12:59:34.447Z,50.2
2018-06-02T13:00:35.834Z,50.2
2018-06-02T13:01:37.217Z,49.9
2018-06-02T13:02:38.607Z,49.2
2018-06-02T13:03:40.004Z,49.3
2018-06-02T13:04:41.389Z,49.9
2018-06-02T13:05:42.777Z,49.9
2018-06-02T13:06:44.234Z,50.0
2018-06-02T13:07:45.567Z,50.0
2018-06-02T13:08:46.956Z,50.0
2018-06-02T13:09:48.340Z,49.7
2018-06-02T13:10:49.733Z,49.7
2018-06-02T13:11:51.116Z,50.1
2018-06-02T13:12:52.508Z,50.3
2018-06-02T13:13:53.891Z,50.2
2018-06-02T13:14:55.271Z,50.4
2018-06-02T13:15:56.661Z,50.1
2018-06-02T13:16:58.052Z,50.0
2018-06-02T13:17:59.441Z,49.7
2018-06-02T13:19:00.821Z,49.8
2018-06-02T13:20:02.740Z,50.0
2018-06-02T13:21:04.123Z,50.1
2018-06-02T13:22:05.505Z,50.2
2018-06-02T13:23:06.897Z,50.0
2018-06-02T13:24:08.293Z,50.0
2018-06-02T13:25:09.675Z,49.4
2018-06-02T13:26:11.065Z,49.3
2018-06-02T13:27:12.452Z,49.1
2018-06-02T13:28:13.839Z,49.1
2018-06-02T13:29:15.233Z,49.2
2018-06-02T13:30:16.610Z,49.2